sensor_id;sensor_type;location;lat;lon;timestamp;P1;durP1;ratioP1;P2;durP2;ratioP2
28180;SDS011;15464;50.988;10.318;2022-10-16T00:00:47;2.90;;;1.10;;
28180;SDS011;15464;50.988;10.318;2022-10-16T00:03:14;2.60;;;1.17;;
28180;SDS011;15464;50.988;10.318;2022-10-16T00:05:41;2.25;;;1.00;;
28180;SDS011;15464;50.988;10.318;2022-10-16T00:08:10;1.23;;;0.90;;
28180;SDS011;15464;50.988;10.318;2022-10-16T00:10:38;1.52;;;0.95;;
28180;SDS011;15464;50.988;10.318;2022-10-16T00:15:52;1.98;;;1.00;;
28180;SDS011;15464;50.988;10.318;2022-10-16T00:18:22;2.10;;;1.00;;
28180;SDS011;15464;50.988;10.318;2022-10-16T00:20:49;0.90;;;0.90;;
28180;SDS011;15464;50.988;10.318;2022-10-16T00:23:16;1.15;;;1.00;;
28180;SDS011;15464;50.988;10.318;2022-10-16T00:25:42;2.53;;;0.88;;
28180;SDS011;15464;50.988;10.318;2022-10-16T00:28:09;2.15;;;1.52;;
28180;SDS011;15464;50.988;10.318;2022-10-16T00:30:39;1.60;;;1.45;;
28180;SDS011;15464;50.988;10.318;2022-10-16T00:33:06;2.35;;;1.38;;
28180;SDS011;15464;50.988;10.318;2022-10-16T00:35:32;2.22;;;0.88;;
28180;SDS011;15464;50.988;10.318;2022-10-16T00:37:59;2.55;;;1.10;;
28180;SDS011;15464;50.988;10.318;2022-10-16T00:40:25;1.40;;;0.98;;
28180;SDS011;15464;50.988;10.318;2022-10-16T00:42:54;2.10;;;1.00;;
28180;SDS011;15464;50.988;10.318;2022-10-16T00:45:21;1.70;;;1.05;;
28180;SDS011;15464;50.988;10.318;2022-10-16T00:47:47;2.75;;;1.05;;
28180;SDS011;15464;50.988;10.318;2022-10-16T00:52:53;2.47;;;1.30;;
28180;SDS011;15464;50.988;10.318;2022-10-16T00:55:21;1.33;;;1.23;;
28180;SDS011;15464;50.988;10.318;2022-10-16T00:57:48;1.27;;;0.70;;
28180;SDS011;15464;50.988;10.318;2022-10-16T01:00:17;2.05;;;1.08;;
28180;SDS011;15464;50.988;10.318;2022-10-16T01:02:53;1.58;;;1.48;;
28180;SDS011;15464;50.988;10.318;2022-10-16T01:05:21;3.75;;;1.20;;
28180;SDS011;15464;50.988;10.318;2022-10-16T01:07:56;1.63;;;1.38;;
28180;SDS011;15464;50.988;10.318;2022-10-16T01:10:48;1.25;;;0.80;;
28180;SDS011;15464;50.988;10.318;2022-10-16T01:13:42;0.90;;;0.70;;
28180;SDS011;15464;50.988;10.318;2022-10-16T01:18:51;3.25;;;0.85;;
28180;SDS011;15464;50.988;10.318;2022-10-16T01:32:26;1.40;;;0.80;;
28180;SDS011;15464;50.988;10.318;2022-10-16T01:34:58;1.63;;;0.90;;
28180;SDS011;15464;50.988;10.318;2022-10-16T01:37:35;0.70;;;0.63;;
28180;SDS011;15464;50.988;10.318;2022-10-16T01:40:24;0.90;;;0.70;;
28180;SDS011;15464;50.988;10.318;2022-10-16T01:42:59;2.15;;;0.77;;
28180;SDS011;15464;50.988;10.318;2022-10-16T01:45:28;0.93;;;0.75;;
28180;SDS011;15464;50.988;10.318;2022-10-16T01:47:56;2.00;;;0.90;;
28180;SDS011;15464;50.988;10.318;2022-10-16T01:50:26;1.33;;;0.60;;
28180;SDS011;15464;50.988;10.318;2022-10-16T01:52:53;1.80;;;0.70;;
28180;SDS011;15464;50.988;10.318;2022-10-16T01:55:30;0.80;;;0.77;;
28180;SDS011;15464;50.988;10.318;2022-10-16T01:58:01;1.05;;;0.70;;
28180;SDS011;15464;50.988;10.318;2022-10-16T02:02:57;3.00;;;0.80;;
28180;SDS011;15464;50.988;10.318;2022-10-16T02:05:30;1.17;;;0.82;;
28180;SDS011;15464;50.988;10.318;2022-10-16T02:08:03;1.10;;;0.70;;
28180;SDS011;15464;50.988;10.318;2022-10-16T02:10:31;3.33;;;0.90;;
28180;SDS011;15464;50.988;10.318;2022-10-16T02:12:59;1.45;;;0.88;;
28180;SDS011;15464;50.988;10.318;2022-10-16T02:15:33;1.35;;;0.88;;
28180;SDS011;15464;50.988;10.318;2022-10-16T02:18:01;0.80;;;0.70;;
28180;SDS011;15464;50.988;10.318;2022-10-16T02:20:32;2.65;;;0.80;;
28180;SDS011;15464;50.988;10.318;2022-10-16T02:23:06;1.73;;;1.05;;
28180;SDS011;15464;50.988;10.318;2022-10-16T02:25:40;1.25;;;0.80;;
28180;SDS011;15464;50.988;10.318;2022-10-16T02:28:12;2.97;;;1.00;;
28180;SDS011;15464;50.988;10.318;2022-10-16T02:31:06;5.60;;;1.10;;
28180;SDS011;15464;50.988;10.318;2022-10-16T02:33:34;1.67;;;0.82;;
28180;SDS011;15464;50.988;10.318;2022-10-16T02:36:04;1.30;;;0.70;;
28180;SDS011;15464;50.988;10.318;2022-10-16T02:38:31;0.80;;;0.80;;
28180;SDS011;15464;50.988;10.318;2022-10-16T02:40:58;1.05;;;0.82;;
28180;SDS011;15464;50.988;10.318;2022-10-16T02:43:25;2.40;;;0.70;;
28180;SDS011;15464;50.988;10.318;2022-10-16T02:45:52;9.38;;;0.85;;
28180;SDS011;15464;50.988;10.318;2022-10-16T02:48:19;4.13;;;1.08;;
28180;SDS011;15464;50.988;10.318;2022-10-16T02:50:45;2.28;;;0.88;;
28180;SDS011;15464;50.988;10.318;2022-10-16T02:53:12;2.10;;;0.80;;
28180;SDS011;15464;50.988;10.318;2022-10-16T02:55:39;3.40;;;1.00;;
28180;SDS011;15464;50.988;10.318;2022-10-16T02:58:05;0.80;;;0.80;;
28180;SDS011;15464;50.988;10.318;2022-10-16T03:00:32;4.10;;;0.80;;
28180;SDS011;15464;50.988;10.318;2022-10-16T03:02:58;1.63;;;0.93;;
28180;SDS011;15464;50.988;10.318;2022-10-16T03:05:25;1.52;;;0.85;;
28180;SDS011;15464;50.988;10.318;2022-10-16T03:07:52;1.50;;;0.80;;
28180;SDS011;15464;50.988;10.318;2022-10-16T03:10:18;4.20;;;1.30;;
28180;SDS011;15464;50.988;10.318;2022-10-16T03:12:45;1.00;;;0.80;;
28180;SDS011;15464;50.988;10.318;2022-10-16T03:15:12;2.13;;;0.80;;
28180;SDS011;15464;50.988;10.318;2022-10-16T03:17:38;1.85;;;0.70;;
28180;SDS011;15464;50.988;10.318;2022-10-16T03:20:05;1.60;;;0.82;;
28180;SDS011;15464;50.988;10.318;2022-10-16T03:22:32;1.58;;;1.00;;
28180;SDS011;15464;50.988;10.318;2022-10-16T03:24:59;1.52;;;0.80;;
28180;SDS011;15464;50.988;10.318;2022-10-16T03:27:25;2.90;;;1.00;;
28180;SDS011;15464;50.988;10.318;2022-10-16T03:29:52;1.60;;;0.70;;
28180;SDS011;15464;50.988;10.318;2022-10-16T03:32:19;1.92;;;1.00;;
28180;SDS011;15464;50.988;10.318;2022-10-16T03:34:46;1.67;;;1.00;;
28180;SDS011;15464;50.988;10.318;2022-10-16T03:37:13;2.38;;;1.00;;
28180;SDS011;15464;50.988;10.318;2022-10-16T03:39:39;2.05;;;1.10;;
28180;SDS011;15464;50.988;10.318;2022-10-16T03:42:06;1.52;;;1.10;;
28180;SDS011;15464;50.988;10.318;2022-10-16T03:44:32;1.60;;;0.98;;
28180;SDS011;15464;50.988;10.318;2022-10-16T03:46:59;3.45;;;0.98;;
28180;SDS011;15464;50.988;10.318;2022-10-16T03:49:26;1.75;;;0.95;;
28180;SDS011;15464;50.988;10.318;2022-10-16T03:51:52;1.00;;;0.90;;
28180;SDS011;15464;50.988;10.318;2022-10-16T03:54:19;3.50;;;0.98;;
28180;SDS011;15464;50.988;10.318;2022-10-16T03:56:45;2.88;;;1.20;;
28180;SDS011;15464;50.988;10.318;2022-10-16T03:59:12;1.17;;;1.08;;
28180;SDS011;15464;50.988;10.318;2022-10-16T04:01:39;1.05;;;0.93;;
28180;SDS011;15464;50.988;10.318;2022-10-16T04:04:06;1.83;;;1.13;;
28180;SDS011;15464;50.988;10.318;2022-10-16T04:06:32;1.20;;;0.82;;
28180;SDS011;15464;50.988;10.318;2022-10-16T04:08:59;2.45;;;1.25;;
28180;SDS011;15464;50.988;10.318;2022-10-16T04:11:26;2.75;;;1.10;;
28180;SDS011;15464;50.988;10.318;2022-10-16T04:13:52;2.65;;;1.02;;
28180;SDS011;15464;50.988;10.318;2022-10-16T04:16:19;1.38;;;0.85;;
28180;SDS011;15464;50.988;10.318;2022-10-16T04:18:46;2.78;;;0.93;;
28180;SDS011;15464;50.988;10.318;2022-10-16T04:21:13;1.35;;;1.00;;
28180;SDS011;15464;50.988;10.318;2022-10-16T04:23:39;1.42;;;1.17;;
28180;SDS011;15464;50.988;10.318;2022-10-16T04:26:06;2.92;;;1.30;;
28180;SDS011;15464;50.988;10.318;2022-10-16T04:28:32;1.20;;;1.02;;
28180;SDS011;15464;50.988;10.318;2022-10-16T04:30:59;1.85;;;1.10;;
28180;SDS011;15464;50.988;10.318;2022-10-16T04:33:25;1.50;;;1.35;;
28180;SDS011;15464;50.988;10.318;2022-10-16T04:35:56;1.73;;;1.20;;
28180;SDS011;15464;50.988;10.318;2022-10-16T04:38:24;1.67;;;0.98;;
28180;SDS011;15464;50.988;10.318;2022-10-16T04:40:51;1.83;;;1.40;;
28180;SDS011;15464;50.988;10.318;2022-10-16T04:43:18;1.48;;;1.13;;
28180;SDS011;15464;50.988;10.318;2022-10-16T04:45:45;1.65;;;1.20;;
28180;SDS011;15464;50.988;10.318;2022-10-16T04:48:12;2.15;;;1.15;;
28180;SDS011;15464;50.988;10.318;2022-10-16T04:50:38;1.48;;;0.93;;
28180;SDS011;15464;50.988;10.318;2022-10-16T04:53:05;1.20;;;1.00;;
28180;SDS011;15464;50.988;10.318;2022-10-16T04:55:33;2.30;;;0.90;;
28180;SDS011;15464;50.988;10.318;2022-10-16T04:58:00;2.53;;;1.10;;
28180;SDS011;15464;50.988;10.318;2022-10-16T05:00:26;2.35;;;1.00;;
28180;SDS011;15464;50.988;10.318;2022-10-16T05:02:53;2.60;;;1.45;;
28180;SDS011;15464;50.988;10.318;2022-10-16T05:05:20;2.90;;;1.38;;
28180;SDS011;15464;50.988;10.318;2022-10-16T05:07:47;2.60;;;1.05;;
28180;SDS011;15464;50.988;10.318;2022-10-16T05:10:14;1.58;;;1.00;;
28180;SDS011;15464;50.988;10.318;2022-10-16T05:12:41;3.38;;;1.58;;
28180;SDS011;15464;50.988;10.318;2022-10-16T05:15:07;1.48;;;1.20;;
28180;SDS011;15464;50.988;10.318;2022-10-16T05:17:34;2.00;;;1.30;;
28180;SDS011;15464;50.988;10.318;2022-10-16T05:20:05;3.15;;;1.30;;
28180;SDS011;15464;50.988;10.318;2022-10-16T05:22:32;3.10;;;1.48;;
28180;SDS011;15464;50.988;10.318;2022-10-16T05:24:58;1.98;;;1.40;;
28180;SDS011;15464;50.988;10.318;2022-10-16T05:27:25;3.45;;;1.30;;
28180;SDS011;15464;50.988;10.318;2022-10-16T05:29:52;1.58;;;1.48;;
28180;SDS011;15464;50.988;10.318;2022-10-16T05:32:18;2.10;;;1.48;;
28180;SDS011;15464;50.988;10.318;2022-10-16T05:34:45;2.20;;;1.35;;
28180;SDS011;15464;50.988;10.318;2022-10-16T05:37:12;1.33;;;1.15;;
28180;SDS011;15464;50.988;10.318;2022-10-16T05:39:39;1.95;;;1.20;;
28180;SDS011;15464;50.988;10.318;2022-10-16T05:42:06;1.42;;;1.20;;
28180;SDS011;15464;50.988;10.318;2022-10-16T05:44:32;1.92;;;1.50;;
28180;SDS011;15464;50.988;10.318;2022-10-16T05:47:04;1.75;;;1.30;;
28180;SDS011;15464;50.988;10.318;2022-10-16T05:49:31;3.30;;;2.05;;
28180;SDS011;15464;50.988;10.318;2022-10-16T05:51:57;3.28;;;1.52;;
28180;SDS011;15464;50.988;10.318;2022-10-16T05:54:24;3.08;;;1.40;;
28180;SDS011;15464;50.988;10.318;2022-10-16T05:56:50;2.38;;;1.13;;
28180;SDS011;15464;50.988;10.318;2022-10-16T05:59:17;2.67;;;1.30;;
28180;SDS011;15464;50.988;10.318;2022-10-16T06:01:44;1.35;;;1.25;;
28180;SDS011;15464;50.988;10.318;2022-10-16T06:04:10;2.30;;;1.17;;
28180;SDS011;15464;50.988;10.318;2022-10-16T06:06:42;1.52;;;1.25;;
28180;SDS011;15464;50.988;10.318;2022-10-16T06:09:08;2.67;;;1.40;;
28180;SDS011;15464;50.988;10.318;2022-10-16T06:11:35;1.65;;;1.13;;
28180;SDS011;15464;50.988;10.318;2022-10-16T06:14:02;2.83;;;1.38;;
28180;SDS011;15464;50.988;10.318;2022-10-16T06:16:33;2.00;;;1.83;;
28180;SDS011;15464;50.988;10.318;2022-10-16T06:19:02;2.00;;;1.00;;
28180;SDS011;15464;50.988;10.318;2022-10-16T06:21:32;1.70;;;1.60;;
28180;SDS011;15464;50.988;10.318;2022-10-16T06:23:59;2.42;;;2.20;;
28180;SDS011;15464;50.988;10.318;2022-10-16T06:26:26;1.95;;;1.30;;
28180;SDS011;15464;50.988;10.318;2022-10-16T06:28:55;3.90;;;1.10;;
28180;SDS011;15464;50.988;10.318;2022-10-16T06:31:23;1.80;;;1.27;;
28180;SDS011;15464;50.988;10.318;2022-10-16T06:33:53;1.35;;;1.10;;
28180;SDS011;15464;50.988;10.318;2022-10-16T06:36:21;2.20;;;1.00;;
28180;SDS011;15464;50.988;10.318;2022-10-16T06:38:48;1.00;;;0.90;;
28180;SDS011;15464;50.988;10.318;2022-10-16T06:41:16;4.30;;;1.10;;
28180;SDS011;15464;50.988;10.318;2022-10-16T06:43:46;1.85;;;0.70;;
28180;SDS011;15464;50.988;10.318;2022-10-16T06:46:14;4.87;;;1.37;;
28180;SDS011;15464;50.988;10.318;2022-10-16T06:48:44;2.38;;;0.80;;
28180;SDS011;15464;50.988;10.318;2022-10-16T06:51:18;0.90;;;0.80;;
28180;SDS011;15464;50.988;10.318;2022-10-16T06:53:49;2.47;;;1.98;;
28180;SDS011;15464;50.988;10.318;2022-10-16T06:56:33;1.33;;;0.90;;
28180;SDS011;15464;50.988;10.318;2022-10-16T06:59:00;1.63;;;0.73;;
28180;SDS011;15464;50.988;10.318;2022-10-16T07:01:28;1.00;;;0.75;;
28180;SDS011;15464;50.988;10.318;2022-10-16T07:03:55;1.23;;;0.77;;
28180;SDS011;15464;50.988;10.318;2022-10-16T07:06:22;1.30;;;0.68;;
28180;SDS011;15464;50.988;10.318;2022-10-16T07:08:51;0.60;;;0.60;;
28180;SDS011;15464;50.988;10.318;2022-10-16T07:11:18;0.82;;;0.60;;
28180;SDS011;15464;50.988;10.318;2022-10-16T07:13:47;1.90;;;1.00;;
28180;SDS011;15464;50.988;10.318;2022-10-16T07:16:22;1.30;;;0.70;;
28180;SDS011;15464;50.988;10.318;2022-10-16T07:18:50;2.38;;;0.60;;
28180;SDS011;15464;50.988;10.318;2022-10-16T07:21:21;3.05;;;1.20;;
28180;SDS011;15464;50.988;10.318;2022-10-16T07:23:56;0.95;;;0.77;;
28180;SDS011;15464;50.988;10.318;2022-10-16T07:26:24;0.98;;;0.63;;
28180;SDS011;15464;50.988;10.318;2022-10-16T07:28:52;2.63;;;0.80;;
28180;SDS011;15464;50.988;10.318;2022-10-16T07:31:19;0.60;;;0.60;;
28180;SDS011;15464;50.988;10.318;2022-10-16T07:33:47;2.30;;;0.82;;
28180;SDS011;15464;50.988;10.318;2022-10-16T07:36:14;0.60;;;0.60;;
28180;SDS011;15464;50.988;10.318;2022-10-16T07:38:43;0.83;;;0.67;;
28180;SDS011;15464;50.988;10.318;2022-10-16T07:41:11;0.70;;;0.50;;
28180;SDS011;15464;50.988;10.318;2022-10-16T07:43:39;1.48;;;0.60;;
28180;SDS011;15464;50.988;10.318;2022-10-16T07:46:06;1.00;;;0.50;;
28180;SDS011;15464;50.988;10.318;2022-10-16T07:48:33;0.68;;;0.63;;
28180;SDS011;15464;50.988;10.318;2022-10-16T07:51:01;1.50;;;0.50;;
28180;SDS011;15464;50.988;10.318;2022-10-16T07:53:31;1.23;;;0.75;;
28180;SDS011;15464;50.988;10.318;2022-10-16T07:56:02;0.60;;;0.50;;
28180;SDS011;15464;50.988;10.318;2022-10-16T07:58:32;0.90;;;0.50;;
28180;SDS011;15464;50.988;10.318;2022-10-16T08:01:02;2.50;;;0.60;;
28180;SDS011;15464;50.988;10.318;2022-10-16T08:03:31;0.68;;;0.68;;
28180;SDS011;15464;50.988;10.318;2022-10-16T08:05:59;0.80;;;0.60;;
28180;SDS011;15464;50.988;10.318;2022-10-16T08:08:27;0.60;;;0.60;;
28180;SDS011;15464;50.988;10.318;2022-10-16T08:10:54;1.05;;;0.50;;
28180;SDS011;15464;50.988;10.318;2022-10-16T08:13:21;0.73;;;0.60;;
28180;SDS011;15464;50.988;10.318;2022-10-16T08:15:47;3.33;;;1.25;;
28180;SDS011;15464;50.988;10.318;2022-10-16T08:18:15;0.70;;;0.60;;
28180;SDS011;15464;50.988;10.318;2022-10-16T08:20:42;1.85;;;0.60;;
28180;SDS011;15464;50.988;10.318;2022-10-16T08:23:09;7.47;;;2.30;;
28180;SDS011;15464;50.988;10.318;2022-10-16T08:25:38;0.87;;;0.80;;
28180;SDS011;15464;50.988;10.318;2022-10-16T08:28:06;0.90;;;0.75;;
28180;SDS011;15464;50.988;10.318;2022-10-16T08:30:34;1.10;;;0.90;;
28180;SDS011;15464;50.988;10.318;2022-10-16T08:33:01;1.73;;;1.30;;
28180;SDS011;15464;50.988;10.318;2022-10-16T08:35:28;1.60;;;0.82;;
28180;SDS011;15464;50.988;10.318;2022-10-16T08:37:54;1.42;;;0.70;;
28180;SDS011;15464;50.988;10.318;2022-10-16T08:48:15;2.60;;;0.80;;
28180;SDS011;15464;50.988;10.318;2022-10-16T08:53:18;2.75;;;1.25;;
28180;SDS011;15464;50.988;10.318;2022-10-16T08:55:52;1.98;;;1.30;;
28180;SDS011;15464;50.988;10.318;2022-10-16T08:58:21;0.85;;;0.85;;
28180;SDS011;15464;50.988;10.318;2022-10-16T09:00:54;2.13;;;0.80;;
28180;SDS011;15464;50.988;10.318;2022-10-16T09:14:39;0.88;;;0.82;;
28180;SDS011;15464;50.988;10.318;2022-10-16T09:23:08;3.22;;;0.90;;
28180;SDS011;15464;50.988;10.318;2022-10-16T09:25:41;2.33;;;1.20;;
28180;SDS011;15464;50.988;10.318;2022-10-16T09:28:10;1.85;;;0.82;;
28180;SDS011;15464;50.988;10.318;2022-10-16T09:30:37;1.35;;;0.82;;
28180;SDS011;15464;50.988;10.318;2022-10-16T09:33:06;3.42;;;1.08;;
28180;SDS011;15464;50.988;10.318;2022-10-16T09:35:43;2.80;;;1.10;;
28180;SDS011;15464;50.988;10.318;2022-10-16T09:38:25;2.13;;;1.10;;
28180;SDS011;15464;50.988;10.318;2022-10-16T09:40:55;1.10;;;0.80;;
28180;SDS011;15464;50.988;10.318;2022-10-16T09:48:36;1.63;;;1.20;;
28180;SDS011;15464;50.988;10.318;2022-10-16T09:51:16;2.13;;;1.20;;
28180;SDS011;15464;50.988;10.318;2022-10-16T09:53:47;2.83;;;0.90;;
28180;SDS011;15464;50.988;10.318;2022-10-16T09:56:48;1.77;;;1.02;;
28180;SDS011;15464;50.988;10.318;2022-10-16T09:59:10;3.53;;;1.25;;
28180;SDS011;15464;50.988;10.318;2022-10-16T10:01:45;1.98;;;0.98;;
28180;SDS011;15464;50.988;10.318;2022-10-16T10:04:15;1.67;;;1.00;;
28180;SDS011;15464;50.988;10.318;2022-10-16T10:07:03;1.77;;;0.95;;
28180;SDS011;15464;50.988;10.318;2022-10-16T10:09:32;2.00;;;0.90;;
28180;SDS011;15464;50.988;10.318;2022-10-16T10:12:05;4.55;;;1.10;;
28180;SDS011;15464;50.988;10.318;2022-10-16T10:14:47;1.20;;;1.10;;
28180;SDS011;15464;50.988;10.318;2022-10-16T10:17:17;3.28;;;1.20;;
28180;SDS011;15464;50.988;10.318;2022-10-16T10:19:48;1.40;;;1.00;;
28180;SDS011;15464;50.988;10.318;2022-10-16T10:25:11;2.65;;;1.02;;
28180;SDS011;15464;50.988;10.318;2022-10-16T10:33:09;2.53;;;0.75;;
28180;SDS011;15464;50.988;10.318;2022-10-16T10:41:04;1.20;;;0.70;;
28180;SDS011;15464;50.988;10.318;2022-10-16T10:49:14;1.02;;;0.90;;
28180;SDS011;15464;50.988;10.318;2022-10-16T11:15:48;1.40;;;0.60;;
28180;SDS011;15464;50.988;10.318;2022-10-16T11:20:57;1.67;;;0.70;;
28180;SDS011;15464;50.988;10.318;2022-10-16T11:23:30;1.65;;;0.70;;
28180;SDS011;15464;50.988;10.318;2022-10-16T11:26:03;0.65;;;0.60;;
28180;SDS011;15464;50.988;10.318;2022-10-16T11:28:56;1.42;;;0.63;;
28180;SDS011;15464;50.988;10.318;2022-10-16T11:31:28;1.00;;;0.50;;
28180;SDS011;15464;50.988;10.318;2022-10-16T11:34:10;1.60;;;0.63;;
28180;SDS011;15464;50.988;10.318;2022-10-16T11:37:32;0.55;;;0.40;;
28180;SDS011;15464;50.988;10.318;2022-10-16T11:39:38;1.25;;;0.60;;
28180;SDS011;15464;50.988;10.318;2022-10-16T11:42:09;2.15;;;0.50;;
28180;SDS011;15464;50.988;10.318;2022-10-16T11:44:48;1.90;;;0.60;;
28180;SDS011;15464;50.988;10.318;2022-10-16T11:47:26;1.40;;;0.77;;
28180;SDS011;15464;50.988;10.318;2022-10-16T11:53:35;0.88;;;0.60;;
28180;SDS011;15464;50.988;10.318;2022-10-16T11:56:16;2.47;;;0.68;;
28180;SDS011;15464;50.988;10.318;2022-10-16T11:58:53;0.75;;;0.40;;
28180;SDS011;15464;50.988;10.318;2022-10-16T12:01:28;1.52;;;0.55;;
28180;SDS011;15464;50.988;10.318;2022-10-16T12:04:53;1.92;;;0.55;;
28180;SDS011;15464;50.988;10.318;2022-10-16T12:07:27;0.50;;;0.45;;
28180;SDS011;15464;50.988;10.318;2022-10-16T12:10:20;0.87;;;0.60;;
28180;SDS011;15464;50.988;10.318;2022-10-16T12:12:52;1.42;;;0.52;;
28180;SDS011;15464;50.988;10.318;2022-10-16T12:18:20;0.88;;;0.55;;
28180;SDS011;15464;50.988;10.318;2022-10-16T12:20:58;1.48;;;0.70;;
28180;SDS011;15464;50.988;10.318;2022-10-16T12:23:30;0.60;;;0.50;;
28180;SDS011;15464;50.988;10.318;2022-10-16T12:25:59;0.87;;;0.40;;
28180;SDS011;15464;50.988;10.318;2022-10-16T12:28:29;0.68;;;0.50;;
28180;SDS011;15464;50.988;10.318;2022-10-16T12:31:02;1.73;;;0.50;;
28180;SDS011;15464;50.988;10.318;2022-10-16T12:33:32;2.95;;;0.50;;
28180;SDS011;15464;50.988;10.318;2022-10-16T12:36:02;0.63;;;0.60;;
28180;SDS011;15464;50.988;10.318;2022-10-16T12:38:36;0.82;;;0.50;;
28180;SDS011;15464;50.988;10.318;2022-10-16T12:41:36;1.38;;;0.60;;
28180;SDS011;15464;50.988;10.318;2022-10-16T12:44:20;2.78;;;0.70;;
28180;SDS011;15464;50.988;10.318;2022-10-16T12:46:52;0.80;;;0.70;;
28180;SDS011;15464;50.988;10.318;2022-10-16T12:49:21;1.85;;;0.50;;
28180;SDS011;15464;50.988;10.318;2022-10-16T12:51:56;1.67;;;0.65;;
28180;SDS011;15464;50.988;10.318;2022-10-16T13:07:43;0.90;;;0.68;;
28180;SDS011;15464;50.988;10.318;2022-10-16T13:18:48;0.68;;;0.60;;
28180;SDS011;15464;50.988;10.318;2022-10-16T13:26:52;1.17;;;0.60;;
28180;SDS011;15464;50.988;10.318;2022-10-16T13:29:37;0.93;;;0.70;;
28180;SDS011;15464;50.988;10.318;2022-10-16T13:32:07;4.28;;;1.17;;
28180;SDS011;15464;50.988;10.318;2022-10-16T13:34:45;2.15;;;0.60;;
28180;SDS011;15464;50.988;10.318;2022-10-16T13:37:22;0.65;;;0.65;;
28180;SDS011;15464;50.988;10.318;2022-10-16T13:40:01;0.60;;;0.60;;
28180;SDS011;15464;50.988;10.318;2022-10-16T13:42:35;2.10;;;0.70;;
28180;SDS011;15464;50.988;10.318;2022-10-16T13:45:01;0.55;;;0.47;;
28180;SDS011;15464;50.988;10.318;2022-10-16T13:47:28;0.90;;;0.73;;
28180;SDS011;15464;50.988;10.318;2022-10-16T13:50:09;2.05;;;0.82;;
28180;SDS011;15464;50.988;10.318;2022-10-16T13:52:38;0.85;;;0.70;;
28180;SDS011;15464;50.988;10.318;2022-10-16T13:55:12;2.38;;;0.60;;
28180;SDS011;15464;50.988;10.318;2022-10-16T13:57:44;2.92;;;0.68;;
28180;SDS011;15464;50.988;10.318;2022-10-16T14:00:18;1.42;;;0.70;;
28180;SDS011;15464;50.988;10.318;2022-10-16T14:02:55;1.42;;;0.80;;
28180;SDS011;15464;50.988;10.318;2022-10-16T14:05:31;0.75;;;0.70;;
28180;SDS011;15464;50.988;10.318;2022-10-16T14:07:58;0.70;;;0.60;;
28180;SDS011;15464;50.988;10.318;2022-10-16T14:10:29;0.50;;;0.50;;
28180;SDS011;15464;50.988;10.318;2022-10-16T14:13:02;1.38;;;0.65;;
28180;SDS011;15464;50.988;10.318;2022-10-16T14:15:31;0.60;;;0.60;;
28180;SDS011;15464;50.988;10.318;2022-10-16T14:18:00;1.25;;;0.80;;
28180;SDS011;15464;50.988;10.318;2022-10-16T14:20:29;0.68;;;0.68;;
28180;SDS011;15464;50.988;10.318;2022-10-16T14:22:58;2.78;;;0.80;;
28180;SDS011;15464;50.988;10.318;2022-10-16T14:25:27;2.88;;;0.63;;
28180;SDS011;15464;50.988;10.318;2022-10-16T14:28:14;0.52;;;0.50;;
28180;SDS011;15464;50.988;10.318;2022-10-16T14:31:16;2.95;;;1.00;;
28180;SDS011;15464;50.988;10.318;2022-10-16T14:33:46;0.80;;;0.73;;
28180;SDS011;15464;50.988;10.318;2022-10-16T14:36:13;1.02;;;0.80;;
28180;SDS011;15464;50.988;10.318;2022-10-16T14:38:42;1.38;;;0.80;;
28180;SDS011;15464;50.988;10.318;2022-10-16T14:41:14;1.23;;;0.90;;
28180;SDS011;15464;50.988;10.318;2022-10-16T14:43:42;2.47;;;0.95;;
28180;SDS011;15464;50.988;10.318;2022-10-16T14:46:18;2.45;;;0.90;;
28180;SDS011;15464;50.988;10.318;2022-10-16T14:48:53;1.05;;;0.95;;
28180;SDS011;15464;50.988;10.318;2022-10-16T14:51:26;0.98;;;0.98;;
28180;SDS011;15464;50.988;10.318;2022-10-16T14:53:53;2.25;;;1.10;;
28180;SDS011;15464;50.988;10.318;2022-10-16T14:56:26;1.15;;;1.02;;
28180;SDS011;15464;50.988;10.318;2022-10-16T14:58:58;2.95;;;1.20;;
28180;SDS011;15464;50.988;10.318;2022-10-16T15:01:25;1.20;;;1.10;;
28180;SDS011;15464;50.988;10.318;2022-10-16T15:03:52;2.30;;;1.52;;
28180;SDS011;15464;50.988;10.318;2022-10-16T15:06:21;1.13;;;1.03;;
28180;SDS011;15464;50.988;10.318;2022-10-16T15:08:48;5.05;;;1.40;;
28180;SDS011;15464;50.988;10.318;2022-10-16T15:11:18;1.40;;;1.30;;
28180;SDS011;15464;50.988;10.318;2022-10-16T15:13:46;2.35;;;1.10;;
28180;SDS011;15464;50.988;10.318;2022-10-16T15:16:14;1.58;;;1.48;;
28180;SDS011;15464;50.988;10.318;2022-10-16T15:18:42;1.95;;;1.10;;
28180;SDS011;15464;50.988;10.318;2022-10-16T15:24:08;2.17;;;1.50;;
28180;SDS011;15464;50.988;10.318;2022-10-16T15:26:44;1.60;;;1.50;;
28180;SDS011;15464;50.988;10.318;2022-10-16T15:29:12;1.45;;;1.35;;
28180;SDS011;15464;50.988;10.318;2022-10-16T15:31:39;1.80;;;1.40;;
28180;SDS011;15464;50.988;10.318;2022-10-16T15:34:09;1.67;;;1.48;;
28180;SDS011;15464;50.988;10.318;2022-10-16T15:36:37;3.63;;;1.60;;
28180;SDS011;15464;50.988;10.318;2022-10-16T15:39:17;1.40;;;1.30;;
28180;SDS011;15464;50.988;10.318;2022-10-16T15:41:46;2.03;;;1.83;;
28180;SDS011;15464;50.988;10.318;2022-10-16T15:44:17;1.45;;;1.35;;
28180;SDS011;15464;50.988;10.318;2022-10-16T15:46:44;1.50;;;1.40;;
28180;SDS011;15464;50.988;10.318;2022-10-16T15:49:11;1.52;;;1.42;;
28180;SDS011;15464;50.988;10.318;2022-10-16T15:51:38;1.30;;;1.15;;
28180;SDS011;15464;50.988;10.318;2022-10-16T15:54:05;1.50;;;1.40;;
28180;SDS011;15464;50.988;10.318;2022-10-16T15:56:32;3.58;;;1.60;;
28180;SDS011;15464;50.988;10.318;2022-10-16T15:58:59;1.60;;;1.50;;
28180;SDS011;15464;50.988;10.318;2022-10-16T16:01:28;1.43;;;1.33;;
28180;SDS011;15464;50.988;10.318;2022-10-16T16:03:55;1.75;;;1.58;;
28180;SDS011;15464;50.988;10.318;2022-10-16T16:06:22;3.08;;;1.65;;
28180;SDS011;15464;50.988;10.318;2022-10-16T16:08:52;2.95;;;1.98;;
28180;SDS011;15464;50.988;10.318;2022-10-16T16:11:19;2.50;;;1.45;;
28180;SDS011;15464;50.988;10.318;2022-10-16T16:13:46;2.10;;;1.90;;
28180;SDS011;15464;50.988;10.318;2022-10-16T16:16:16;2.03;;;1.60;;
28180;SDS011;15464;50.988;10.318;2022-10-16T16:18:43;3.85;;;1.50;;
28180;SDS011;15464;50.988;10.318;2022-10-16T16:21:11;2.20;;;1.80;;
28180;SDS011;15464;50.988;10.318;2022-10-16T16:23:38;1.50;;;1.40;;
28180;SDS011;15464;50.988;10.318;2022-10-16T16:28:33;3.88;;;1.90;;
28180;SDS011;15464;50.988;10.318;2022-10-16T16:31:00;2.03;;;1.70;;
28180;SDS011;15464;50.988;10.318;2022-10-16T16:33:27;2.30;;;2.00;;
28180;SDS011;15464;50.988;10.318;2022-10-16T16:35:58;2.25;;;2.05;;
28180;SDS011;15464;50.988;10.318;2022-10-16T16:38:25;2.13;;;1.83;;
28180;SDS011;15464;50.988;10.318;2022-10-16T16:40:52;3.90;;;2.15;;
28180;SDS011;15464;50.988;10.318;2022-10-16T16:43:25;2.03;;;1.80;;
28180;SDS011;15464;50.988;10.318;2022-10-16T16:45:53;4.68;;;3.63;;
28180;SDS011;15464;50.988;10.318;2022-10-16T16:48:20;10.85;;;8.73;;
28180;SDS011;15464;50.988;10.318;2022-10-16T16:50:47;10.73;;;8.05;;
28180;SDS011;15464;50.988;10.318;2022-10-16T16:53:14;11.20;;;8.70;;
28180;SDS011;15464;50.988;10.318;2022-10-16T16:55:41;9.02;;;7.78;;
28180;SDS011;15464;50.988;10.318;2022-10-16T16:58:08;5.13;;;4.57;;
28180;SDS011;15464;50.988;10.318;2022-10-16T17:00:34;6.05;;;5.15;;
28180;SDS011;15464;50.988;10.318;2022-10-16T17:03:01;5.53;;;4.70;;
28180;SDS011;15464;50.988;10.318;2022-10-16T17:05:28;5.78;;;4.47;;
28180;SDS011;15464;50.988;10.318;2022-10-16T17:07:54;5.93;;;4.80;;
28180;SDS011;15464;50.988;10.318;2022-10-16T17:10:21;4.88;;;4.18;;